Time;durP1;ratioP1;P1;durP2;ratioP2;P2;SDS_P1;SDS_P2;PMS_P1;PMS_P2;Temp;Humidity;BMP_temperature;BMP_pressure;BME280_temperature;BME280_humidity;BME280_pressure;Samples;Min_cycle;Max_cycle;Signal;HPM_P1;HPM_P2
2022/05/31 00:00:08;;;;;;;15.63;7.60;;;;;;;8.95;100.00;101329.22;5274202;28;20536;-69
2022/05/31 00:02:40;;;;;;;13.43;7.00;;;;;;;8.97;100.00;101330.75;5283977;28;20039;-69
2022/05/31 00:05:11;;;;;;;12.43;6.60;;;;;;;8.92;100.00;101332.19;5274604;28;20019;-70
2022/05/31 00:07:42;;;;;;;11.25;7.00;;;;;;;8.89;100.00;101332.47;5288622;28;20051;-69
2022/05/31 00:10:14;;;;;;;10.27;6.63;;;;;;;8.86;100.00;101325.56;5279430;28;20051;-69
2022/05/31 00:12:45;;;;;;;25.95;8.30;;;;;;;8.83;100.00;101320.50;5281298;28;20369;-69
2022/05/31 00:15:17;;;;;;;11.95;7.18;;;;;;;8.79;100.00;101316.44;5278481;28;20039;-69
2022/05/31 00:17:49;;;;;;;16.10;7.85;;;;;;;8.75;100.00;101323.91;5274752;28;20429;-69
2022/05/31 00:20:20;;;;;;;10.90;7.25;;;;;;;8.71;100.00;101318.97;5276503;28;20102;-68
2022/05/31 00:22:50;;;;;;;14.68;7.68;;;;;;;8.72;100.00;101317.97;5267421;28;20099;-69
2022/05/31 00:25:21;;;;;;;16.50;8.40;;;;;;;8.72;100.00;101320.66;5267323;28;20032;-69
2022/05/31 00:27:52;;;;;;;20.90;9.20;;;;;;;8.73;100.00;101323.19;5274194;28;20024;-69
2022/05/31 00:30:22;;;;;;;13.85;8.43;;;;;;;8.73;100.00;101322.34;5275444;28;20032;-69
2022/05/31 00:32:53;;;;;;;14.27;8.60;;;;;;;8.74;100.00;101321.38;5286187;28;20382;-69
2022/05/31 00:35:29;;;;;;;14.18;8.77;;;;;;;8.78;100.00;101314.72;5286916;28;20024;-70
2022/05/31 00:38:00;;;;;;;15.40;9.07;;;;;;;8.78;100.00;101323.59;5288194;28;20032;-69
2022/05/31 00:40:33;;;;;;;16.73;8.95;;;;;;;8.82;100.00;101325.00;5273506;28;20030;-69
2022/05/31 00:43:07;;;;;;;12.82;8.40;;;;;;;8.78;100.00;101322.75;5288342;28;20106;-69
2022/05/31 00:46:04;;;;;;;21.13;10.23;;;;;;;8.69;100.00;101318.28;5267371;28;20515;-69
2022/05/31 00:48:44;;;;;;;18.33;10.00;;;;;;;8.76;100.00;101311.38;5284867;28;20106;-69
2022/05/31 00:51:17;;;;;;;18.02;10.05;;;;;;;8.77;100.00;101307.69;5274783;28;20089;-69
2022/05/31 00:53:54;;;;;;;19.58;10.07;;;;;;;8.79;100.00;101311.94;5266885;28;20028;-69
2022/05/31 00:56:28;;;;;;;18.55;10.88;;;;;;;8.87;100.00;101308.53;5266490;28;20028;-69
2022/05/31 00:59:18;;;;;;;17.35;10.13;;;;;;;8.88;100.00;101310.19;5266697;28;20028;-69
2022/05/31 01:01:52;;;;;;;19.75;10.70;;;;;;;8.87;100.00;101308.53;5276488;28;20024;-69
2022/05/31 01:04:32;;;;;;;20.58;10.93;;;;;;;8.85;100.00;101302.47;5274429;28;20046;-69
2022/05/31 01:07:03;;;;;;;18.50;9.88;;;;;;;8.86;100.00;101300.66;5278144;28;20027;-70
2022/05/31 01:09:33;;;;;;;17.42;10.50;;;;;;;8.92;100.00;101298.22;5284056;28;20023;-69
2022/05/31 01:12:04;;;;;;;19.65;10.23;;;;;;;8.91;100.00;101296.53;5276217;28;20024;-69
2022/05/31 01:14:38;;;;;;;14.43;9.88;;;;;;;8.95;100.00;101305.13;5271603;28;20087;-69
2022/05/31 01:17:13;;;;;;;18.20;8.82;;;;;;;8.94;100.00;101290.91;5273935;28;20024;-69
2022/05/31 01:19:55;;;;;;;20.05;9.77;;;;;;;8.95;100.00;101294.44;5280134;28;20065;-69
2022/05/31 01:22:44;;;;;;;18.48;11.18;;;;;;;8.98;100.00;101294.13;5279971;28;20469;-69
2022/05/31 01:25:33;;;;;;;20.67;10.93;;;;;;;8.98;100.00;101292.28;5279304;28;20027;-69
2022/05/31 01:28:23;;;;;;;20.83;11.23;;;;;;;8.99;100.00;101291.31;5265791;28;20040;-69
2022/05/31 01:31:17;;;;;;;19.83;11.95;;;;;;;8.99;100.00;101294.00;5271706;28;20098;-69
2022/05/31 01:34:25;;;;;;;18.88;10.40;;;;;;;9.04;100.00;101296.25;5282669;28;20031;-69
2022/05/31 01:36:57;;;;;;;21.13;10.70;;;;;;;9.04;100.00;101291.72;5279592;28;20054;-69
2022/05/31 01:39:48;;;;;;;17.63;10.93;;;;;;;9.06;100.00;101289.75;5275207;28;20419;-69
2022/05/31 01:42:25;;;;;;;22.30;11.10;;;;;;;9.08;100.00;101281.56;5273571;28;20023;-69
2022/05/31 01:45:02;;;;;;;20.30;11.10;;;;;;;9.07;100.00;101283.41;5271721;28;20439;-69
2022/05/31 01:47:35;;;;;;;20.48;10.85;;;;;;;9.05;100.00;101284.53;5275282;28;20049;-70
2022/05/31 01:50:18;;;;;;;19.40;10.93;;;;;;;9.02;100.00;101284.81;5273676;28;20416;-70
2022/05/31 01:52:51;;;;;;;21.17;11.57;;;;;;;8.99;100.00;101277.09;5274692;28;20140;-69
2022/05/31 01:55:31;;;;;;;20.02;11.40;;;;;;;8.99;100.00;101277.94;5272851;28;20028;-70
2022/05/31 01:58:05;;;;;;;19.25;10.93;;;;;;;8.97;100.00;101277.22;5273448;28;20099;-70
2022/05/31 02:00:36;;;;;;;20.40;11.10;;;;;;;8.95;100.00;101273.88;5277269;28;20024;-70
2022/05/31 02:03:07;;;;;;;19.60;10.15;;;;;;;8.92;100.00;101276.81;5273134;28;20022;-70
2022/05/31 02:05:44;;;;;;;19.25;9.98;;;;;;;8.91;100.00;101282.31;5274407;28;20107;-69
2022/05/31 02:08:17;;;;;;;17.90;10.00;;;;;;;8.88;100.00;101272.75;5271665;28;20464;-69
2022/05/31 02:10:48;;;;;;;24.50;10.43;;;;;;;8.86;100.00;101268.53;5273117;28;20448;-68
2022/05/31 02:13:25;;;;;;;17.10;9.95;;;;;;;8.82;100.00;101268.81;5278827;28;20069;-69
2022/05/31 02:15:55;;;;;;;17.10;10.23;;;;;;;8.80;100.00;101270.81;5279477;28;20030;-69
2022/05/31 02:19:15;;;;;;;17.05;10.18;;;;;;;8.80;100.00;101272.63;5265572;28;20028;-70
2022/05/31 02:21:17;;;;;;;18.25;10.48;;;;;;;8.80;100.00;101273.47;5279086;28;20099;-68
2022/05/31 02:23:47;;;;;;;24.00;12.00;;;;;;;8.79;100.00;101274.47;5279020;28;20107;-69
2022/05/31 02:26:17;;;;;;;18.95;10.63;;;;;;;8.81;100.00;101274.31;5265480;28;20020;-69
2022/05/31 02:28:48;;;;;;;22.58;10.60;;;;;;;8.80;100.00;101273.47;5267637;28;20466;-68
2022/05/31 02:31:18;;;;;;;20.50;11.10;;;;;;;8.82;100.00;101278.69;5281774;28;20031;-68
2022/05/31 02:33:49;;;;;;;20.90;9.85;;;;;;;8.77;100.00;101271.09;5297978;27;20111;-68
2022/05/31 02:36:20;;;;;;;19.00;10.68;;;;;;;8.73;100.00;101271.50;5280413;28;20065;-68
2022/05/31 02:38:50;;;;;;;19.13;11.35;;;;;;;8.71;100.00;101276.19;5273568;28;20028;-69
2022/05/31 02:41:21;;;;;;;18.48;10.98;;;;;;;8.68;100.00;101271.09;5290392;27;20019;-69
2022/05/31 02:43:52;;;;;;;20.60;11.95;;;;;;;8.68;100.00;101271.09;5271383;28;20100;-69
2022/05/31 02:46:23;;;;;;;29.75;12.52;;;;;;;8.68;100.00;101268.44;5269486;28;20444;-69
2022/05/31 02:48:54;;;;;;;23.27;10.68;;;;;;;8.70;100.00;101263.78;5283193;28;20032;-69
2022/05/31 02:51:24;;;;;;;23.67;11.18;;;;;;;8.74;100.00;101265.19;5282737;28;20026;-69
2022/05/31 02:53:56;;;;;;;20.08;11.20;;;;;;;8.76;100.00;101268.56;5268961;28;20532;-68
2022/05/31 02:56:27;;;;;;;19.83;10.50;;;;;;;8.80;100.00;101268.13;5282757;28;20026;-68
2022/05/31 02:58:58;;;;;;;17.85;10.48;;;;;;;8.84;100.00;101262.50;5269434;28;20024;-68
2022/05/31 03:01:32;;;;;;;20.40;10.10;;;;;;;8.86;100.00;101256.00;5278755;28;20016;-68
2022/05/31 03:04:04;;;;;;;19.33;10.27;;;;;;;8.87;100.00;101255.00;5268783;28;20452;-69
2022/05/31 03:06:34;;;;;;;19.42;9.73;;;;;;;8.89;100.00;101257.56;5287675;28;20136;-68
2022/05/31 03:09:07;;;;;;;24.38;10.57;;;;;;;8.91;100.00;101264.44;5277504;28;20415;-69
2022/05/31 03:12:15;;;;;;;22.23;10.32;;;;;;;8.89;100.00;101268.25;5275291;28;20034;-68
2022/05/31 03:15:05;;;;;;;14.90;9.65;;;;;;;8.85;100.00;101262.34;5275502;28;20201;-68
2022/05/31 03:17:40;;;;;;;18.25;9.32;;;;;;;8.86;100.00;101261.34;5273924;28;20020;-68
2022/05/31 03:20:30;;;;;;;19.85;10.05;;;;;;;8.88;100.00;101258.53;5278792;28;20026;-68
2022/05/31 03:23:22;;;;;;;21.17;10.68;;;;;;;8.89;100.00;101258.41;5275661;28;20020;-68
2022/05/31 03:25:55;;;;;;;22.73;10.68;;;;;;;8.89;100.00;101260.25;5272838;28;20477;-68
2022/05/31 03:28:27;;;;;;;22.88;11.50;;;;;;;8.86;100.00;101260.50;5275810;28;20042;-69
2022/05/31 03:30:57;;;;;;;15.82;9.82;;;;;;;8.79;100.00;101250.41;5268445;28;20544;-69
2022/05/31 03:33:28;;;;;;;19.80;10.15;;;;;;;8.79;100.00;101257.59;5281936;28;20031;-69
2022/05/31 03:35:59;;;;;;;16.30;9.95;;;;;;;8.79;100.00;101257.59;5289427;28;20024;-69
2022/05/31 03:38:30;;;;;;;18.63;10.05;;;;;;;8.80;100.00;101259.25;5275321;27;20028;-69
2022/05/31 03:41:01;;;;;;;22.23;10.48;;;;;;;8.80;100.00;101253.91;5279420;28;20385;-69
2022/05/31 03:43:36;;;;;;;18.95;11.02;;;;;;;8.76;100.00;101250.69;5285725;28;20039;-69
2022/05/31 03:46:23;;;;;;;17.70;9.77;;;;;;;8.74;100.00;101246.47;5277527;28;20020;-69
2022/05/31 03:48:53;;;;;;;19.75;9.98;;;;;;;8.73;100.00;101250.13;5275844;28;20031;-68
2022/05/31 03:51:24;;;;;;;18.52;9.30;;;;;;;8.75;100.00;101243.66;5288903;28;20027;-68
2022/05/31 03:53:54;;;;;;;18.08;9.13;;;;;;;8.78;100.00;101250.53;5289355;28;20026;-69
2022/05/31 03:56:25;;;;;;;16.33;9.77;;;;;;;8.81;100.00;101256.44;5285837;28;20035;-68
2022/05/31 03:58:55;;;;;;;19.42;10.35;;;;;;;8.84;100.00;101251.81;5278464;28;20023;-69
2022/05/31 04:01:26;;;;;;;21.92;10.40;;;;;;;8.84;100.00;101247.28;5286272;28;20016;-69
2022/05/31 04:03:56;;;;;;;21.42;11.23;;;;;;;8.83;100.00;101250.94;5288883;28;20019;-68
2022/05/31 04:06:27;;;;;;;18.98;10.18;;;;;;;8.83;100.00;101248.25;5275061;28;20157;-68
2022/05/31 04:08:58;;;;;;;20.33;9.52;;;;;;;8.83;100.00;101248.25;5275645;28;20024;-68
2022/05/31 04:11:29;;;;;;;25.98;11.10;;;;;;;8.82;100.00;101247.41;5281315;28;20020;-68
2022/05/31 04:14:00;;;;;;;20.83;10.43;;;;;;;8.84;100.00;101241.94;5281565;28;20030;-68
2022/05/31 04:16:30;;;;;;;25.65;11.82;;;;;;;8.86;100.00;101242.63;5268828;28;20016;-69
2022/05/31 04:19:02;;;;;;;17.17;10.60;;;;;;;8.91;100.00;101245.72;5267492;28;20110;-68
2022/05/31 04:21:32;;;;;;;22.55;10.45;;;;;;;8.94;100.00;101242.75;5276681;28;20031;-68
2022/05/31 04:24:08;;;;;;;23.08;10.02;;;;;;;8.99;100.00;101237.81;5271589;28;20024;-68
2022/05/31 04:26:43;;;;;;;22.17;10.82;;;;;;;9.08;100.00;101242.25;5272477;28;20058;-68
2022/05/31 04:29:14;;;;;;;27.13;11.52;;;;;;;9.16;100.00;101244.22;5282758;28;20392;-68
2022/05/31 04:31:44;;;;;;;26.88;10.77;;;;;;;9.24;100.00;101243.47;5266909;28;20032;-68
2022/05/31 04:34:15;;;;;;;20.50;10.35;;;;;;;9.34;100.00;101247.81;5287671;28;20496;-69
2022/05/31 04:36:46;;;;;;;18.83;11.13;;;;;;;9.45;100.00;101241.41;5274786;28;20035;-69
2022/05/31 04:39:16;;;;;;;22.65;10.32;;;;;;;9.54;100.00;101251.22;5280286;28;20529;-69
2022/05/31 04:41:46;;;;;;;19.90;10.23;;;;;;;9.64;100.00;101242.25;5281250;28;20027;-68
2022/05/31 04:44:18;;;;;;;21.80;10.65;;;;;;;9.72;100.00;101245.88;5276150;28;20060;-69
2022/05/31 04:46:48;;;;;;;20.73;10.77;;;;;;;9.83;100.00;101244.81;5274451;28;20031;-69
2022/05/31 04:49:20;;;;;;;22.42;10.23;;;;;;;9.92;100.00;101240.38;5277722;28;20024;-69
2022/05/31 04:51:50;;;;;;;22.50;9.90;;;;;;;10.00;100.00;101232.44;5280567;28;20020;-68
2022/05/31 04:54:23;;;;;;;19.88;9.82;;;;;;;10.08;100.00;101229.81;5278711;28;20030;-69
2022/05/31 04:56:54;;;;;;;16.63;8.88;;;;;;;10.13;100.00;101231.03;5273699;28;20472;-69
2022/05/31 04:59:24;;;;;;;29.13;11.35;;;;;;;10.20;100.00;101236.66;5273477;28;20035;-69
2022/05/31 05:01:55;;;;;;;17.90;9.13;;;;;;;10.23;100.00;101232.78;5283376;28;20515;-69
2022/05/31 05:04:25;;;;;;;17.52;8.68;;;;;;;10.26;100.00;101227.16;5273171;28;20076;-69
2022/05/31 05:06:57;;;;;;;21.80;9.82;;;;;;;10.32;100.00;101234.59;5266707;28;20051;-69
2022/05/31 05:09:27;;;;;;;26.38;9.85;;;;;;;10.39;100.00;101235.63;5279909;28;20027;-68
2022/05/31 05:11:58;;;;;;;18.77;8.50;;;;;;;10.45;100.00;101235.03;5276279;28;20370;-69
2022/05/31 05:14:30;;;;;;;14.85;9.18;;;;;;;10.49;100.00;101239.09;5272580;28;20111;-69
2022/05/31 05:17:00;;;;;;;19.75;9.00;;;;;;;10.57;100.00;101235.63;5276855;28;20400;-68
2022/05/31 05:19:32;;;;;;;25.23;9.70;;;;;;;10.59;100.00;101242.53;5280003;28;20024;-69
2022/05/31 05:22:03;;;;;;;15.55;8.55;;;;;;;10.64;100.00;101233.97;5278935;28;20031;-70
2022/05/31 05:24:33;;;;;;;16.00;9.13;;;;;;;10.70;100.00;101237.91;5273514;28;20031;-69
2022/05/31 05:27:04;;;;;;;17.10;9.30;;;;;;;10.73;100.00;101241.09;5278855;28;20114;-70
2022/05/31 05:32:25;;;;;;;18.30;8.52;;;;;;;10.85;100.00;101239.00;5271054;28;20074;-70
2022/05/31 05:34:56;;;;;;;20.65;8.77;;;;;;;10.92;100.00;101236.53;5274776;28;20133;-69
2022/05/31 05:37:26;;;;;;;16.63;8.63;;;;;;;10.99;100.00;101232.19;5286485;28;20028;-68
2022/05/31 05:39:57;;;;;;;17.98;9.32;;;;;;;11.02;100.00;101229.19;5273984;28;20389;-69
2022/05/31 05:42:27;;;;;;;16.45;8.55;;;;;;;11.05;100.00;101224.34;5277830;28;20012;-68
2022/05/31 05:44:59;;;;;;;27.02;10.13;;;;;;;11.11;100.00;101218.34;5281266;28;20607;-69
2022/05/31 05:47:30;;;;;;;16.60;9.00;;;;;;;11.20;100.00;101223.75;5287300;28;20035;-69
2022/05/31 05:50:00;;;;;;;20.17;10.43;;;;;;;11.32;100.00;101238.56;5273681;28;20024;-69
2022/05/31 05:52:32;;;;;;;19.95;9.00;;;;;;;11.44;100.00;101228.34;5286967;28;20027;-69
2022/05/31 05:55:04;;;;;;;21.25;9.55;;;;;;;11.53;100.00;101238.97;5281960;28;20028;-69
2022/05/31 05:57:35;;;;;;;18.90;9.45;;;;;;;11.67;100.00;101238.34;5266106;28;20057;-68
2022/05/31 06:00:06;;;;;;;17.38;8.10;;;;;;;11.79;100.00;101238.88;5285776;28;20028;-67
2022/05/31 06:02:41;;;;;;;19.45;10.02;;;;;;;11.89;100.00;101239.59;5286785;27;20489;-67
2022/05/31 06:05:16;;;;;;;23.73;11.85;;;;;;;12.01;100.00;101252.75;5269688;28;20035;-67
2022/05/31 06:07:55;;;;;;;21.48;9.80;;;;;;;12.10;100.00;101251.75;5283509;28;20388;-68
2022/05/31 06:10:33;;;;;;;20.98;9.20;;;;;;;12.19;100.00;101240.81;5281475;28;20160;-67
2022/05/31 06:13:11;;;;;;;18.85;8.25;;;;;;;12.39;100.00;101241.31;5277506;28;20016;-67
2022/05/31 06:15:47;;;;;;;19.75;8.77;;;;;;;12.49;100.00;101241.16;5290006;28;20027;-67
2022/05/31 06:18:22;;;;;;;20.30;9.20;;;;;;;12.58;100.00;101245.53;5279384;28;20027;-67
2022/05/31 06:20:59;;;;;;;19.45;8.85;;;;;;;12.72;100.00;101237.78;5287902;27;20493;-67
2022/05/31 06:23:29;;;;;;;17.80;8.70;;;;;;;12.81;100.00;101239.44;5270466;28;20074;-67
2022/05/31 06:26:00;;;;;;;20.95;8.85;;;;;;;12.98;100.00;101230.31;5269697;28;20028;-67
2022/05/31 06:28:31;;;;;;;17.33;9.73;;;;;;;13.24;100.00;101240.03;5289874;28;20031;-67
2022/05/31 06:31:01;;;;;;;18.10;8.43;;;;;;;13.41;100.00;101245.19;5277524;28;20027;-67
2022/05/31 06:33:32;;;;;;;15.05;8.27;;;;;;;13.53;100.00;101247.47;5287932;28;20020;-67
2022/05/31 06:36:02;;;;;;;14.93;8.90;;;;;;;13.57;100.00;101238.03;5269950;28;20051;-67
2022/05/31 06:38:34;;;;;;;19.08;8.02;;;;;;;13.61;100.00;101240.22;5269686;28;20048;-67
2022/05/31 06:41:05;;;;;;;20.70;9.20;;;;;;;13.62;100.00;101239.19;5279001;28;20027;-67
2022/05/31 06:43:35;;;;;;;11.98;7.57;;;;;;;13.61;100.00;101236.66;5287543;28;20012;-67
2022/05/31 06:46:08;;;;;;;19.52;8.30;;;;;;;13.59;100.00;101244.06;5269512;28;20474;-67
2022/05/31 06:48:40;;;;;;;14.32;8.30;;;;;;;13.58;100.00;101254.03;5287815;28;20095;-67
2022/05/31 06:51:12;;;;;;;17.23;7.93;;;;;;;13.61;100.00;101247.47;5290096;28;20442;-67
2022/05/31 06:56:48;;;;;;;14.60;8.10;;;;;;;13.73;100.00;101246.03;5285013;28;20020;-67
2022/05/31 06:59:19;;;;;;;16.27;7.72;;;;;;;14.00;100.00;101242.81;5278458;28;20026;-68
2022/05/31 07:01:49;;;;;;;14.90;7.68;;;;;;;14.17;100.00;101253.50;5294640;27;20028;-67
2022/05/31 07:04:20;;;;;;;17.20;8.57;;;;;;;14.37;100.00;101238.50;5287335;28;20023;-68
2022/05/31 07:06:50;;;;;;;13.68;8.07;;;;;;;14.65;100.00;101244.19;5279901;28;20452;-68
2022/05/31 07:09:21;;;;;;;12.40;7.55;;;;;;;15.05;100.00;101241.25;5281686;28;20019;-68
2022/05/31 07:11:51;;;;;;;17.63;8.38;;;;;;;15.38;100.00;101237.13;5287580;28;20049;-68
2022/05/31 07:14:23;;;;;;;13.65;7.88;;;;;;;15.79;100.00;101242.03;5286794;28;20528;-68
2022/05/31 07:16:54;;;;;;;13.07;7.35;;;;;;;16.18;100.00;101240.78;5275898;28;20027;-68
2022/05/31 07:19:25;;;;;;;12.65;7.68;;;;;;;16.68;100.00;101238.91;5270480;28;20043;-68
2022/05/31 07:22:10;;;;;;;13.65;7.07;;;;;;;17.19;100.00;101247.63;5287339;28;20099;-68
2022/05/31 07:24:41;;;;;;;14.27;6.82;;;;;;;17.35;100.00;101250.00;5271628;28;20023;-68
2022/05/31 07:27:12;;;;;;;14.63;6.90;;;;;;;17.38;100.00;101246.06;5280500;28;20019;-68
2022/05/31 07:29:42;;;;;;;12.38;6.53;;;;;;;17.29;100.00;101245.38;5286344;28;20123;-68
2022/05/31 07:32:13;;;;;;;16.83;6.93;;;;;;;17.37;100.00;101246.25;5274480;27;20473;-68
2022/05/31 07:34:43;;;;;;;12.13;5.70;;;;;;;17.41;100.00;101236.66;5298243;27;20023;-68
2022/05/31 07:37:14;;;;;;;12.60;5.90;;;;;;;18.13;100.00;101240.72;5282747;28;20031;-68
2022/05/31 07:39:47;;;;;;;13.82;5.68;;;;;;;18.88;100.00;101240.31;5266394;28;20063;-68
2022/05/31 07:42:17;;;;;;;14.55;5.93;;;;;;;19.71;100.00;101236.09;5271180;28;20024;-68
2022/05/31 07:44:51;;;;;;;8.10;5.47;;;;;;;19.98;99.68;101236.78;5286806;28;20096;-68
2022/05/31 07:47:24;;;;;;;11.63;5.57;;;;;;;19.94;98.79;101239.13;5287019;28;20023;-68
2022/05/31 07:49:54;;;;;;;12.05;5.00;;;;;;;19.02;98.92;101235.66;5287187;27;20485;-68
2022/05/31 07:52:25;;;;;;;13.65;5.72;;;;;;;18.67;100.00;101240.50;5286529;28;20034;-68
2022/05/31 07:54:55;;;;;;;9.00;5.28;;;;;;;19.45;97.31;101234.31;5286347;28;20024;-68
2022/05/31 08:00:15;;;;;;;13.35;6.00;;;;;;;19.58;96.75;101226.94;5286083;28;20023;-68
2022/05/31 08:02:46;;;;;;;13.63;5.32;;;;;;;19.62;95.84;101230.06;5282035;28;20404;-68
2022/05/31 08:05:16;;;;;;;9.30;5.35;;;;;;;19.64;90.31;101230.69;5279069;28;20388;-68
2022/05/31 08:07:47;;;;;;;10.75;5.95;;;;;;;19.52;91.57;101222.31;5280090;28;20028;-68
2022/05/31 08:10:19;;;;;;;9.48;5.68;;;;;;;20.13;90.57;101223.69;5286094;28;20031;-68
2022/05/31 08:12:49;;;;;;;7.35;5.40;;;;;;;20.49;85.81;101219.50;5286847;28;20126;-68
2022/05/31 08:15:20;;;;;;;6.63;4.60;;;;;;;21.08;87.46;101232.53;5284463;28;20054;-68
2022/05/31 08:17:50;;;;;;;8.65;4.60;;;;;;;21.14;82.18;101233.53;5272474;28;20476;-69
2022/05/31 08:20:21;;;;;;;10.00;4.70;;;;;;;21.90;74.89;101240.38;5286285;28;20055;-68
2022/05/31 08:22:52;;;;;;;9.05;5.40;;;;;;;21.75;71.44;101229.03;5285883;28;20008;-68
2022/05/31 08:25:22;;;;;;;8.32;5.35;;;;;;;21.53;76.82;101225.94;5285403;28;20032;-68
2022/05/31 08:27:53;;;;;;;10.65;5.90;;;;;;;21.37;73.60;101225.50;5270708;28;20027;-69
2022/05/31 08:30:23;;;;;;;10.23;5.75;;;;;;;21.77;72.72;101226.91;5278541;28;20068;-69
2022/05/31 08:32:54;;;;;;;9.88;5.50;;;;;;;21.66;69.48;101226.63;5274374;28;20023;-69
2022/05/31 08:35:25;;;;;;;10.13;6.28;;;;;;;21.65;70.55;101218.66;5271399;27;20032;-69
2022/05/31 08:37:55;;;;;;;11.48;6.00;;;;;;;21.97;71.11;101227.44;5286289;28;20023;-69
2022/05/31 08:40:26;;;;;;;9.82;5.65;;;;;;;22.97;64.94;101226.69;5285633;28;20032;-69
2022/05/31 08:43:02;;;;;;;11.90;6.03;;;;;;;23.23;67.74;101219.88;5286025;28;20504;-69
2022/05/31 08:46:05;;;;;;;7.28;5.07;;;;;;;24.15;57.15;101217.03;5271650;28;20024;-69
2022/05/31 08:48:50;;;;;;;11.27;5.43;;;;;;;23.72;63.76;101214.88;5285882;28;20528;-69
2022/05/31 08:57:12;;;;;;;11.65;6.53;;;;;;;23.20;58.29;101206.69;5273041;28;20042;-69
2022/05/31 08:59:52;;;;;;;10.48;5.82;;;;;;;23.73;53.72;101211.88;5271938;28;20024;-69
2022/05/31 09:02:29;;;;;;;9.25;6.00;;;;;;;23.90;50.33;101209.19;5282258;28;20015;-69
2022/05/31 09:05:08;;;;;;;10.57;5.85;;;;;;;23.66;52.05;101208.47;5285030;28;20028;-69
2022/05/31 09:07:46;;;;;;;11.05;6.10;;;;;;;23.33;56.06;101203.66;5285561;28;20024;-69
2022/05/31 09:10:36;;;;;;;9.52;6.18;;;;;;;23.32;55.10;101204.72;5285321;28;20038;-69
2022/05/31 09:13:23;;;;;;;11.38;5.25;;;;;;;22.88;55.73;101198.84;5284679;28;20034;-69
2022/05/31 09:16:02;;;;;;;12.82;5.25;;;;;;;22.61;57.55;101193.03;5283443;28;20381;-69
2022/05/31 09:18:53;;;;;;;11.20;5.10;;;;;;;22.56;60.62;101194.81;5264177;28;20024;-69
2022/05/31 09:21:34;;;;;;;8.57;4.50;;;;;;;23.37;54.35;101199.38;5271135;28;20135;-69
2022/05/31 09:24:09;;;;;;;12.43;4.32;;;;;;;23.50;51.77;101198.25;5282611;28;20019;-69
2022/05/31 09:26:51;;;;;;;10.05;5.03;;;;;;;24.20;47.47;101200.69;5269967;28;20036;-69
2022/05/31 09:30:03;;;;;;;10.35;5.05;;;;;;;23.93;48.11;101196.91;5283922;28;20562;-69
2022/05/31 09:33:08;;;;;;;7.80;5.47;;;;;;;23.85;53.00;101197.31;5288851;27;20064;-69
2022/05/31 09:35:40;;;;;;;7.15;3.75;;;;;;;24.60;46.84;101194.22;5280958;27;20070;-69
2022/05/31 09:38:46;;;;;;;8.68;4.45;;;;;;;23.99;46.85;101193.16;5274710;28;20119;-69
2022/05/31 09:41:32;;;;;;;10.05;4.00;;;;;;;23.35;47.35;101193.31;5275502;28;20035;-69
2022/05/31 09:44:13;;;;;;;7.03;3.85;;;;;;;23.17;49.39;101188.00;5271391;28;20384;-69
2022/05/31 09:46:43;;;;;;;4.85;3.20;;;;;;;23.95;48.04;101187.38;5284759;28;20030;-69
2022/05/31 09:49:48;;;;;;;6.18;3.40;;;;;;;24.64;45.07;101191.78;5274978;28;20405;-69
2022/05/31 09:52:42;;;;;;;8.45;3.55;;;;;;;24.35;47.93;101185.53;5271570;28;20027;-69
2022/05/31 09:58:31;;;;;;;7.38;3.22;;;;;;;24.70;43.36;101188.03;5284878;28;20024;-69
2022/05/31 10:01:01;;;;;;;5.85;3.03;;;;;;;23.96;47.28;101190.94;5274279;28;20027;-69
2022/05/31 10:03:33;;;;;;;7.80;3.25;;;;;;;23.06;47.77;101180.66;5284600;28;20622;-69
2022/05/31 10:06:32;;;;;;;6.50;3.20;;;;;;;23.15;46.54;101185.50;5283403;28;20031;-69
2022/05/31 10:09:16;;;;;;;8.23;3.60;;;;;;;22.36;47.13;101173.28;5276293;28;20107;-69
2022/05/31 10:11:49;;;;;;;11.65;3.75;;;;;;;21.73;47.99;101172.75;5271033;28;20028;-69
2022/05/31 10:14:25;;;;;;;8.18;3.58;;;;;;;22.17;49.20;101187.03;5282906;28;20102;-69
2022/05/31 10:16:56;;;;;;;4.35;2.65;;;;;;;23.42;49.82;101182.22;5273227;28;20028;-69
2022/05/31 10:19:29;;;;;;;5.50;3.03;;;;;;;24.37;46.29;101170.56;5281135;28;20038;-69
2022/05/31 10:22:16;;;;;;;4.95;2.70;;;;;;;24.09;42.11;101171.41;5272699;28;20024;-69
2022/05/31 10:24:46;;;;;;;7.35;2.70;;;;;;;23.85;46.55;101167.19;5269604;28;20082;-69
2022/05/31 10:27:36;;;;;;;6.57;2.80;;;;;;;23.99;49.27;101173.97;5278364;28;20043;-69
2022/05/31 10:30:10;;;;;;;7.15;3.40;;;;;;;23.79;48.95;101171.72;5271069;28;20028;-69
2022/05/31 10:32:58;;;;;;;5.97;3.10;;;;;;;24.04;43.09;101169.41;5270234;28;20024;-69
2022/05/31 10:35:32;;;;;;;2.70;1.60;;;;;;;23.41;44.43;101169.59;5266572;28;20585;-69
2022/05/31 10:38:10;;;;;;;3.42;1.75;;;;;;;24.07;44.46;101173.59;5274334;28;20016;-69
2022/05/31 10:41:17;;;;;;;4.13;2.22;;;;;;;23.68;41.64;101176.19;5283454;28;20034;-69
2022/05/31 10:43:54;;;;;;;3.35;1.52;;;;;;;22.30;42.44;101171.50;5270501;28;20546;-70
2022/05/31 10:46:44;;;;;;;2.63;1.67;;;;;;;21.38;44.30;101177.22;5283406;28;20024;-69
2022/05/31 10:49:17;;;;;;;3.80;1.88;;;;;;;21.15;48.13;101180.63;5262899;28;20028;-69
2022/05/31 10:51:56;;;;;;;7.13;2.45;;;;;;;20.78;49.28;101171.59;5284077;28;20031;-69
2022/05/31 10:54:52;;;;;;;3.13;1.92;;;;;;;21.26;51.68;101181.75;5287423;28;20084;-69
2022/05/31 10:57:32;;;;;;;4.85;2.30;;;;;;;22.39;46.09;101167.31;5277695;28;20031;-69
2022/05/31 11:00:20;;;;;;;5.22;2.15;;;;;;;22.22;42.98;101159.00;5285494;28;20565;-69
2022/05/31 11:03:08;;;;;;;6.15;2.10;;;;;;;21.79;42.76;101164.69;5283638;28;20091;-69
2022/05/31 11:05:39;;;;;;;4.95;1.90;;;;;;;21.20;47.02;101178.88;5286714;28;20035;-69
2022/05/31 11:11:35;;;;;;;3.83;1.85;;;;;;;21.34;46.80;101171.41;5284112;28;20397;-68
2022/05/31 11:14:25;;;;;;;4.90;2.42;;;;;;;21.35;45.61;101177.69;5287069;28;20036;-68
2022/05/31 11:17:06;;;;;;;9.25;2.15;;;;;;;21.04;49.93;101176.78;5277648;27;20031;-69
2022/05/31 11:19:58;;;;;;;5.30;2.28;;;;;;;20.61;48.69;101171.34;5285749;28;20027;-69
2022/05/31 11:22:51;;;;;;;7.72;1.95;;;;;;;20.49;48.99;101175.88;5286836;28;20062;-69
2022/05/31 11:25:27;;;;;;;6.22;1.90;;;;;;;20.38;49.21;101180.97;5286477;28;20028;-69
2022/05/31 11:28:24;;;;;;;11.57;2.28;;;;;;;20.24;50.30;101187.59;5273513;28;20036;-69
2022/05/31 11:31:12;;;;;;;9.05;2.42;;;;;;;19.96;50.74;101184.44;5285755;28;20549;-68
2022/05/31 11:34:01;;;;;;;9.55;2.15;;;;;;;19.70;53.41;101186.28;5289761;27;20031;-68
2022/05/31 11:36:59;;;;;;;4.68;2.10;;;;;;;19.41;53.10;101191.19;5279512;28;20115;-69
2022/05/31 11:39:42;;;;;;;3.95;1.75;;;;;;;19.39;52.27;101179.72;5288008;27;20019;-69
2022/05/31 11:42:41;;;;;;;4.45;2.00;;;;;;;19.95;51.37;101183.59;5287455;28;20020;-69
2022/05/31 11:45:30;;;;;;;4.97;1.85;;;;;;;20.65;51.99;101178.84;5286978;28;20065;-69
2022/05/31 11:48:22;;;;;;;3.83;1.63;;;;;;;21.21;49.38;101177.81;5287895;27;20031;-69
2022/05/31 11:51:19;;;;;;;2.33;1.40;;;;;;;21.77;47.44;101181.31;5287811;28;20492;-69
2022/05/31 11:54:19;;;;;;;2.60;1.60;;;;;;;21.58;47.36;101182.41;5266909;28;20028;-69
2022/05/31 11:57:28;;;;;;;4.05;1.45;;;;;;;21.32;47.16;101184.44;5286575;28;20019;-69
2022/05/31 12:00:17;;;;;;;3.40;1.17;;;;;;;21.21;48.91;101190.63;5282423;28;20020;-69
2022/05/31 12:03:03;;;;;;;4.80;1.60;;;;;;;20.99;45.39;101195.72;5283679;28;20020;-69
2022/05/31 12:05:40;;;;;;;1.88;1.20;;;;;;;20.90;46.90;101195.19;5287343;28;20034;-69
2022/05/31 12:08:16;;;;;;;5.57;1.80;;;;;;;20.48;46.22;101193.28;5285495;28;20122;-69
2022/05/31 12:10:52;;;;;;;2.65;1.23;;;;;;;20.61;46.13;101194.00;5286987;28;20031;-68
2022/05/31 12:13:25;;;;;;;7.10;1.80;;;;;;;20.65;47.78;101188.94;5287106;28;20020;-69
2022/05/31 12:15:56;;;;;;;4.70;1.23;;;;;;;20.47;48.03;101187.00;5285015;28;20125;-69